Terminal Aerodrome Forecast
Issued by NWS

Home | Current Version | Previous Version | Text Only | Print | Product List | Glossary On
Versions: 1 2 3 4 5 6 7 8 9 10 11 12 13 14 15 16
000
FTUS46 KSEW 251700 RRA
TAFPAE
TAF
KPAE 251745Z 2518/2618 VRB04KT P6SM SCT150 BKN200
     FM260800 12004KT 2SM BR SCT003
     FM261100 13004KT 1/4SM FG VV001
     FM261700 14007KT 5SM BR SCT002 BKN005=

USA.gov is the U.S. government's official web portal to all federal, state and local government web resources and services.